sensor_id;sensor_type;location;lat;lon;timestamp;P1;durP1;ratioP1;P2;durP2;ratioP2
66139;SDS011;52945;51.908;8.364;2022-11-20T00:00:27;10.85;;;5.65;;
66139;SDS011;52945;51.908;8.364;2022-11-20T00:03:28;13.43;;;5.13;;
66139;SDS011;52945;51.908;8.364;2022-11-20T00:06:28;17.15;;;6.38;;
66139;SDS011;52945;51.908;8.364;2022-11-20T00:09:29;16.85;;;6.97;;
66139;SDS011;52945;51.908;8.364;2022-11-20T00:12:30;10.18;;;4.88;;
66139;SDS011;52945;51.908;8.364;2022-11-20T00:15:31;13.27;;;5.15;;
66139;SDS011;52945;51.908;8.364;2022-11-20T00:18:32;11.68;;;6.55;;
66139;SDS011;52945;51.908;8.364;2022-11-20T00:21:33;13.32;;;5.00;;
66139;SDS011;52945;51.908;8.364;2022-11-20T00:24:33;16.30;;;7.28;;
66139;SDS011;52945;51.908;8.364;2022-11-20T00:27:34;11.45;;;5.70;;
66139;SDS011;52945;51.908;8.364;2022-11-20T00:30:34;12.38;;;5.90;;
66139;SDS011;52945;51.908;8.364;2022-11-20T00:33:35;12.70;;;5.13;;
66139;SDS011;52945;51.908;8.364;2022-11-20T00:36:36;10.68;;;6.22;;
66139;SDS011;52945;51.908;8.364;2022-11-20T00:39:36;14.90;;;5.63;;
66139;SDS011;52945;51.908;8.364;2022-11-20T00:42:37;12.00;;;5.90;;
66139;SDS011;52945;51.908;8.364;2022-11-20T00:45:37;22.77;;;6.30;;
66139;SDS011;52945;51.908;8.364;2022-11-20T00:48:38;10.07;;;5.22;;
66139;SDS011;52945;51.908;8.364;2022-11-20T00:51:38;15.15;;;6.55;;
66139;SDS011;52945;51.908;8.364;2022-11-20T00:54:39;15.40;;;5.65;;
66139;SDS011;52945;51.908;8.364;2022-11-20T00:57:40;10.57;;;5.95;;
66139;SDS011;52945;51.908;8.364;2022-11-20T01:00:40;13.27;;;6.65;;
66139;SDS011;52945;51.908;8.364;2022-11-20T01:03:43;15.25;;;6.75;;
66139;SDS011;52945;51.908;8.364;2022-11-20T01:06:45;19.63;;;6.68;;
66139;SDS011;52945;51.908;8.364;2022-11-20T01:09:46;12.80;;;6.15;;
66139;SDS011;52945;51.908;8.364;2022-11-20T01:12:46;14.60;;;6.80;;
66139;SDS011;52945;51.908;8.364;2022-11-20T01:16:14;12.82;;;6.10;;
66139;SDS011;52945;51.908;8.364;2022-11-20T01:19:20;13.20;;;6.60;;
66139;SDS011;52945;51.908;8.364;2022-11-20T01:22:22;11.38;;;5.80;;
66139;SDS011;52945;51.908;8.364;2022-11-20T01:25:23;12.43;;;5.97;;
66139;SDS011;52945;51.908;8.364;2022-11-20T01:28:23;15.18;;;6.32;;
66139;SDS011;52945;51.908;8.364;2022-11-20T01:31:25;13.02;;;6.75;;
66139;SDS011;52945;51.908;8.364;2022-11-20T01:34:31;11.07;;;5.60;;
66139;SDS011;52945;51.908;8.364;2022-11-20T01:37:31;14.60;;;6.43;;
66139;SDS011;52945;51.908;8.364;2022-11-20T01:40:32;14.40;;;6.10;;
66139;SDS011;52945;51.908;8.364;2022-11-20T01:43:33;17.73;;;7.63;;
66139;SDS011;52945;51.908;8.364;2022-11-20T01:46:35;12.35;;;5.75;;
66139;SDS011;52945;51.908;8.364;2022-11-20T01:49:39;9.75;;;6.43;;
66139;SDS011;52945;51.908;8.364;2022-11-20T01:52:48;13.73;;;6.13;;
66139;SDS011;52945;51.908;8.364;2022-11-20T01:56:02;13.68;;;6.63;;
66139;SDS011;52945;51.908;8.364;2022-11-20T01:59:07;12.82;;;5.53;;
66139;SDS011;52945;51.908;8.364;2022-11-20T02:02:10;13.02;;;6.70;;
66139;SDS011;52945;51.908;8.364;2022-11-20T02:05:19;13.07;;;5.70;;
66139;SDS011;52945;51.908;8.364;2022-11-20T02:08:44;14.75;;;5.50;;
66139;SDS011;52945;51.908;8.364;2022-11-20T02:11:45;14.25;;;6.10;;
66139;SDS011;52945;51.908;8.364;2022-11-20T02:14:45;10.77;;;5.30;;
66139;SDS011;52945;51.908;8.364;2022-11-20T02:17:46;10.07;;;5.88;;
66139;SDS011;52945;51.908;8.364;2022-11-20T02:20:48;6.63;;;4.35;;
66139;SDS011;52945;51.908;8.364;2022-11-20T02:27:12;13.32;;;5.88;;
66139;SDS011;52945;51.908;8.364;2022-11-20T02:30:14;11.48;;;6.07;;
66139;SDS011;52945;51.908;8.364;2022-11-20T02:33:14;8.75;;;4.53;;
66139;SDS011;52945;51.908;8.364;2022-11-20T02:36:15;8.70;;;5.28;;
66139;SDS011;52945;51.908;8.364;2022-11-20T02:39:16;10.23;;;4.72;;
66139;SDS011;52945;51.908;8.364;2022-11-20T02:42:17;7.18;;;3.50;;
66139;SDS011;52945;51.908;8.364;2022-11-20T02:45:18;7.72;;;4.63;;
66139;SDS011;52945;51.908;8.364;2022-11-20T02:48:18;7.80;;;4.80;;
66139;SDS011;52945;51.908;8.364;2022-11-20T02:51:19;10.75;;;5.65;;
66139;SDS011;52945;51.908;8.364;2022-11-20T02:54:20;10.30;;;5.07;;
66139;SDS011;52945;51.908;8.364;2022-11-20T02:57:20;8.73;;;3.88;;
66139;SDS011;52945;51.908;8.364;2022-11-20T03:00:21;7.85;;;4.28;;
66139;SDS011;52945;51.908;8.364;2022-11-20T03:03:21;9.75;;;4.03;;
66139;SDS011;52945;51.908;8.364;2022-11-20T03:06:22;7.70;;;4.95;;
66139;SDS011;52945;51.908;8.364;2022-11-20T03:09:22;9.15;;;4.30;;
66139;SDS011;52945;51.908;8.364;2022-11-20T03:12:23;5.57;;;4.22;;
66139;SDS011;52945;51.908;8.364;2022-11-20T03:15:23;11.52;;;4.63;;
66139;SDS011;52945;51.908;8.364;2022-11-20T03:18:27;8.68;;;4.63;;
66139;SDS011;52945;51.908;8.364;2022-11-20T03:21:28;8.00;;;3.72;;
66139;SDS011;52945;51.908;8.364;2022-11-20T03:24:29;9.70;;;4.20;;
66139;SDS011;52945;51.908;8.364;2022-11-20T03:27:33;7.07;;;4.03;;
66139;SDS011;52945;51.908;8.364;2022-11-20T03:30:34;7.88;;;3.67;;
66139;SDS011;52945;51.908;8.364;2022-11-20T03:33:35;5.97;;;3.58;;
66139;SDS011;52945;51.908;8.364;2022-11-20T03:36:37;8.10;;;4.22;;
66139;SDS011;52945;51.908;8.364;2022-11-20T03:39:39;6.80;;;3.97;;
66139;SDS011;52945;51.908;8.364;2022-11-20T03:42:39;6.25;;;3.67;;
66139;SDS011;52945;51.908;8.364;2022-11-20T03:45:46;6.60;;;3.97;;
66139;SDS011;52945;51.908;8.364;2022-11-20T03:48:46;6.97;;;4.22;;
66139;SDS011;52945;51.908;8.364;2022-11-20T03:51:48;6.65;;;3.92;;
66139;SDS011;52945;51.908;8.364;2022-11-20T03:54:48;5.85;;;3.00;;
66139;SDS011;52945;51.908;8.364;2022-11-20T03:57:49;7.78;;;4.53;;
66139;SDS011;52945;51.908;8.364;2022-11-20T04:00:49;8.20;;;4.05;;
66139;SDS011;52945;51.908;8.364;2022-11-20T04:03:51;11.40;;;4.60;;
66139;SDS011;52945;51.908;8.364;2022-11-20T04:06:52;8.20;;;3.75;;
66139;SDS011;52945;51.908;8.364;2022-11-20T04:09:53;11.70;;;4.38;;
66139;SDS011;52945;51.908;8.364;2022-11-20T04:12:54;5.45;;;3.78;;
66139;SDS011;52945;51.908;8.364;2022-11-20T04:15:56;5.75;;;3.42;;
66139;SDS011;52945;51.908;8.364;2022-11-20T04:18:58;11.60;;;4.38;;
66139;SDS011;52945;51.908;8.364;2022-11-20T04:22:00;5.43;;;3.25;;
66139;SDS011;52945;51.908;8.364;2022-11-20T04:25:01;7.93;;;3.90;;
66139;SDS011;52945;51.908;8.364;2022-11-20T04:28:01;5.47;;;3.22;;
66139;SDS011;52945;51.908;8.364;2022-11-20T04:31:09;7.05;;;3.67;;
66139;SDS011;52945;51.908;8.364;2022-11-20T04:34:17;7.53;;;3.35;;
66139;SDS011;52945;51.908;8.364;2022-11-20T04:37:18;7.43;;;4.28;;
66139;SDS011;52945;51.908;8.364;2022-11-20T04:40:18;6.05;;;3.72;;
66139;SDS011;52945;51.908;8.364;2022-11-20T04:43:19;3.85;;;3.03;;
66139;SDS011;52945;51.908;8.364;2022-11-20T04:46:20;8.70;;;3.15;;
66139;SDS011;52945;51.908;8.364;2022-11-20T04:49:21;4.47;;;2.63;;
66139;SDS011;52945;51.908;8.364;2022-11-20T04:52:21;5.28;;;3.42;;
66139;SDS011;52945;51.908;8.364;2022-11-20T04:55:22;8.32;;;3.03;;
66139;SDS011;52945;51.908;8.364;2022-11-20T04:58:22;4.70;;;2.83;;
66139;SDS011;52945;51.908;8.364;2022-11-20T05:01:23;5.85;;;2.90;;
66139;SDS011;52945;51.908;8.364;2022-11-20T05:04:24;5.70;;;3.65;;
66139;SDS011;52945;51.908;8.364;2022-11-20T05:07:25;4.57;;;2.80;;
66139;SDS011;52945;51.908;8.364;2022-11-20T05:10:25;5.55;;;3.30;;
66139;SDS011;52945;51.908;8.364;2022-11-20T05:13:26;6.05;;;2.80;;
66139;SDS011;52945;51.908;8.364;2022-11-20T05:16:27;9.27;;;3.05;;
66139;SDS011;52945;51.908;8.364;2022-11-20T05:19:27;6.15;;;3.55;;
66139;SDS011;52945;51.908;8.364;2022-11-20T05:22:28;10.82;;;3.42;;
66139;SDS011;52945;51.908;8.364;2022-11-20T05:25:29;5.78;;;3.42;;
66139;SDS011;52945;51.908;8.364;2022-11-20T05:28:30;8.63;;;4.45;;
66139;SDS011;52945;51.908;8.364;2022-11-20T05:31:31;6.72;;;4.18;;
66139;SDS011;52945;51.908;8.364;2022-11-20T05:34:32;6.85;;;3.45;;
66139;SDS011;52945;51.908;8.364;2022-11-20T05:37:32;4.97;;;2.97;;
66139;SDS011;52945;51.908;8.364;2022-11-20T05:40:33;6.50;;;2.83;;
66139;SDS011;52945;51.908;8.364;2022-11-20T05:43:34;3.97;;;2.90;;
66139;SDS011;52945;51.908;8.364;2022-11-20T05:46:35;9.82;;;3.63;;
66139;SDS011;52945;51.908;8.364;2022-11-20T05:49:36;5.88;;;3.17;;
66139;SDS011;52945;51.908;8.364;2022-11-20T05:52:37;6.85;;;3.03;;
66139;SDS011;52945;51.908;8.364;2022-11-20T05:55:37;3.60;;;2.83;;
66139;SDS011;52945;51.908;8.364;2022-11-20T05:58:38;9.27;;;4.05;;
66139;SDS011;52945;51.908;8.364;2022-11-20T06:01:39;3.65;;;3.13;;
66139;SDS011;52945;51.908;8.364;2022-11-20T06:04:39;5.60;;;3.17;;
66139;SDS011;52945;51.908;8.364;2022-11-20T06:07:40;5.63;;;2.85;;
66139;SDS011;52945;51.908;8.364;2022-11-20T06:10:40;3.67;;;2.63;;
66139;SDS011;52945;51.908;8.364;2022-11-20T06:13:41;6.80;;;2.88;;
66139;SDS011;52945;51.908;8.364;2022-11-20T06:16:42;6.88;;;3.55;;
66139;SDS011;52945;51.908;8.364;2022-11-20T06:19:43;5.72;;;3.42;;
66139;SDS011;52945;51.908;8.364;2022-11-20T06:22:43;5.70;;;3.63;;
66139;SDS011;52945;51.908;8.364;2022-11-20T06:25:44;4.75;;;3.25;;
66139;SDS011;52945;51.908;8.364;2022-11-20T06:28:44;5.75;;;2.90;;
66139;SDS011;52945;51.908;8.364;2022-11-20T06:31:45;4.60;;;3.35;;
66139;SDS011;52945;51.908;8.364;2022-11-20T06:34:46;6.03;;;3.05;;
66139;SDS011;52945;51.908;8.364;2022-11-20T06:37:47;6.03;;;2.92;;
66139;SDS011;52945;51.908;8.364;2022-11-20T06:40:47;6.50;;;2.70;;
66139;SDS011;52945;51.908;8.364;2022-11-20T06:43:48;6.63;;;3.40;;
66139;SDS011;52945;51.908;8.364;2022-11-20T06:46:49;5.82;;;2.97;;
66139;SDS011;52945;51.908;8.364;2022-11-20T06:49:50;8.35;;;3.65;;
66139;SDS011;52945;51.908;8.364;2022-11-20T06:52:50;4.80;;;2.47;;
66139;SDS011;52945;51.908;8.364;2022-11-20T06:55:51;5.70;;;3.08;;
66139;SDS011;52945;51.908;8.364;2022-11-20T06:58:52;7.28;;;3.33;;
66139;SDS011;52945;51.908;8.364;2022-11-20T07:01:52;6.72;;;3.10;;
66139;SDS011;52945;51.908;8.364;2022-11-20T07:04:53;3.72;;;2.45;;
66139;SDS011;52945;51.908;8.364;2022-11-20T07:07:55;7.75;;;3.45;;
66139;SDS011;52945;51.908;8.364;2022-11-20T07:10:57;6.13;;;3.53;;
66139;SDS011;52945;51.908;8.364;2022-11-20T07:14:01;6.72;;;2.83;;
66139;SDS011;52945;51.908;8.364;2022-11-20T07:17:01;10.00;;;3.58;;
66139;SDS011;52945;51.908;8.364;2022-11-20T07:20:02;6.55;;;2.63;;
66139;SDS011;52945;51.908;8.364;2022-11-20T07:23:03;13.18;;;4.00;;
66139;SDS011;52945;51.908;8.364;2022-11-20T07:26:07;8.02;;;3.20;;
66139;SDS011;52945;51.908;8.364;2022-11-20T07:29:10;5.15;;;2.97;;
66139;SDS011;52945;51.908;8.364;2022-11-20T07:32:10;5.18;;;3.08;;
66139;SDS011;52945;51.908;8.364;2022-11-20T07:35:11;6.07;;;3.58;;
66139;SDS011;52945;51.908;8.364;2022-11-20T07:38:11;8.52;;;4.53;;
66139;SDS011;52945;51.908;8.364;2022-11-20T07:41:12;16.38;;;4.68;;
66139;SDS011;52945;51.908;8.364;2022-11-20T07:44:12;9.10;;;3.65;;
66139;SDS011;52945;51.908;8.364;2022-11-20T07:47:13;5.70;;;3.55;;
66139;SDS011;52945;51.908;8.364;2022-11-20T07:50:13;15.48;;;5.38;;
66139;SDS011;52945;51.908;8.364;2022-11-20T07:53:14;13.48;;;5.68;;
66139;SDS011;52945;51.908;8.364;2022-11-20T07:56:20;15.68;;;5.85;;
66139;SDS011;52945;51.908;8.364;2022-11-20T07:59:21;12.48;;;4.10;;
66139;SDS011;52945;51.908;8.364;2022-11-20T08:02:21;5.30;;;3.25;;
66139;SDS011;52945;51.908;8.364;2022-11-20T08:05:22;8.02;;;3.72;;
66139;SDS011;52945;51.908;8.364;2022-11-20T08:08:23;7.03;;;2.92;;
66139;SDS011;52945;51.908;8.364;2022-11-20T08:11:23;10.27;;;5.15;;
66139;SDS011;52945;51.908;8.364;2022-11-20T08:14:43;4.93;;;2.92;;
66139;SDS011;52945;51.908;8.364;2022-11-20T08:17:43;7.10;;;3.53;;
66139;SDS011;52945;51.908;8.364;2022-11-20T08:20:44;4.68;;;2.28;;
66139;SDS011;52945;51.908;8.364;2022-11-20T08:23:45;5.00;;;3.00;;
66139;SDS011;52945;51.908;8.364;2022-11-20T08:26:46;6.05;;;3.35;;
66139;SDS011;52945;51.908;8.364;2022-11-20T08:29:46;10.68;;;4.68;;
66139;SDS011;52945;51.908;8.364;2022-11-20T08:32:47;6.10;;;2.95;;
66139;SDS011;52945;51.908;8.364;2022-11-20T08:35:47;5.30;;;3.63;;
66139;SDS011;52945;51.908;8.364;2022-11-20T08:38:48;5.20;;;3.28;;
66139;SDS011;52945;51.908;8.364;2022-11-20T08:41:50;6.03;;;2.80;;
66139;SDS011;52945;51.908;8.364;2022-11-20T08:44:51;6.60;;;3.30;;
66139;SDS011;52945;51.908;8.364;2022-11-20T08:47:51;6.53;;;3.05;;
66139;SDS011;52945;51.908;8.364;2022-11-20T08:50:52;8.02;;;3.38;;
66139;SDS011;52945;51.908;8.364;2022-11-20T08:53:52;7.57;;;3.30;;
66139;SDS011;52945;51.908;8.364;2022-11-20T08:56:53;7.90;;;3.70;;
66139;SDS011;52945;51.908;8.364;2022-11-20T08:59:54;7.30;;;3.88;;
66139;SDS011;52945;51.908;8.364;2022-11-20T09:02:54;6.97;;;2.95;;
66139;SDS011;52945;51.908;8.364;2022-11-20T09:06:02;7.13;;;3.45;;
66139;SDS011;52945;51.908;8.364;2022-11-20T09:09:04;3.72;;;2.70;;
66139;SDS011;52945;51.908;8.364;2022-11-20T09:12:05;7.30;;;3.10;;
66139;SDS011;52945;51.908;8.364;2022-11-20T09:15:06;8.02;;;3.25;;
66139;SDS011;52945;51.908;8.364;2022-11-20T09:18:07;12.70;;;4.38;;
66139;SDS011;52945;51.908;8.364;2022-11-20T09:21:11;6.47;;;3.30;;
66139;SDS011;52945;51.908;8.364;2022-11-20T09:24:13;7.35;;;3.83;;
66139;SDS011;52945;51.908;8.364;2022-11-20T09:27:14;7.65;;;3.20;;
66139;SDS011;52945;51.908;8.364;2022-11-20T09:30:18;6.70;;;3.58;;
66139;SDS011;52945;51.908;8.364;2022-11-20T09:33:19;8.05;;;3.33;;
66139;SDS011;52945;51.908;8.364;2022-11-20T09:36:19;6.75;;;2.78;;
66139;SDS011;52945;51.908;8.364;2022-11-20T09:39:20;6.72;;;2.60;;
66139;SDS011;52945;51.908;8.364;2022-11-20T09:45:48;5.70;;;2.60;;
66139;SDS011;52945;51.908;8.364;2022-11-20T09:52:19;4.30;;;2.85;;
66139;SDS011;52945;51.908;8.364;2022-11-20T09:55:28;6.05;;;3.33;;
66139;SDS011;52945;51.908;8.364;2022-11-20T09:58:47;6.22;;;3.30;;
66139;SDS011;52945;51.908;8.364;2022-11-20T10:01:51;7.93;;;3.47;;
66139;SDS011;52945;51.908;8.364;2022-11-20T10:05:05;6.72;;;3.22;;
66139;SDS011;52945;51.908;8.364;2022-11-20T10:08:24;11.48;;;3.95;;
66139;SDS011;52945;51.908;8.364;2022-11-20T10:11:38;7.80;;;3.47;;
66139;SDS011;52945;51.908;8.364;2022-11-20T10:14:59;8.13;;;3.55;;
66139;SDS011;52945;51.908;8.364;2022-11-20T10:28:37;9.10;;;3.70;;
66139;SDS011;52945;51.908;8.364;2022-11-20T10:38:19;9.45;;;4.20;;
66139;SDS011;52945;51.908;8.364;2022-11-20T10:41:24;8.18;;;3.83;;
66139;SDS011;52945;51.908;8.364;2022-11-20T10:44:29;10.68;;;4.13;;
66139;SDS011;52945;51.908;8.364;2022-11-20T10:47:49;8.93;;;4.38;;
66139;SDS011;52945;51.908;8.364;2022-11-20T11:00:43;9.27;;;4.03;;
66139;SDS011;52945;51.908;8.364;2022-11-20T11:03:44;9.07;;;3.95;;
66139;SDS011;52945;51.908;8.364;2022-11-20T11:06:46;8.00;;;3.65;;
66139;SDS011;52945;51.908;8.364;2022-11-20T11:09:50;11.07;;;4.70;;
66139;SDS011;52945;51.908;8.364;2022-11-20T11:12:54;7.28;;;3.35;;
66139;SDS011;52945;51.908;8.364;2022-11-20T11:15:55;7.55;;;4.32;;
66139;SDS011;52945;51.908;8.364;2022-11-20T11:19:12;10.43;;;3.97;;
66139;SDS011;52945;51.908;8.364;2022-11-20T11:22:16;8.73;;;3.83;;
66139;SDS011;52945;51.908;8.364;2022-11-20T11:28:34;10.30;;;3.70;;
66139;SDS011;52945;51.908;8.364;2022-11-20T11:31:35;8.60;;;3.55;;
66139;SDS011;52945;51.908;8.364;2022-11-20T11:34:36;9.13;;;3.75;;
66139;SDS011;52945;51.908;8.364;2022-11-20T11:37:37;14.32;;;4.07;;
66139;SDS011;52945;51.908;8.364;2022-11-20T11:40:39;10.70;;;4.57;;
66139;SDS011;52945;51.908;8.364;2022-11-20T11:43:40;7.78;;;3.63;;
66139;SDS011;52945;51.908;8.364;2022-11-20T11:50:33;9.15;;;3.95;;
66139;SDS011;52945;51.908;8.364;2022-11-20T11:53:33;9.48;;;3.40;;
66139;SDS011;52945;51.908;8.364;2022-11-20T11:56:41;8.05;;;4.07;;
66139;SDS011;52945;51.908;8.364;2022-11-20T12:06:17;11.73;;;4.20;;
66139;SDS011;52945;51.908;8.364;2022-11-20T12:09:18;9.20;;;4.43;;
66139;SDS011;52945;51.908;8.364;2022-11-20T12:12:24;8.10;;;4.07;;
66139;SDS011;52945;51.908;8.364;2022-11-20T12:15:33;9.32;;;4.10;;
66139;SDS011;52945;51.908;8.364;2022-11-20T12:18:34;7.55;;;3.90;;
66139;SDS011;52945;51.908;8.364;2022-11-20T12:21:38;9.13;;;3.58;;
66139;SDS011;52945;51.908;8.364;2022-11-20T12:25:07;11.27;;;4.45;;
66139;SDS011;52945;51.908;8.364;2022-11-20T12:31:31;13.50;;;4.75;;
66139;SDS011;52945;51.908;8.364;2022-11-20T12:38:19;9.65;;;4.43;;
66139;SDS011;52945;51.908;8.364;2022-11-20T12:41:43;9.20;;;4.53;;
66139;SDS011;52945;51.908;8.364;2022-11-20T12:45:17;10.43;;;4.75;;
66139;SDS011;52945;51.908;8.364;2022-11-20T12:48:36;13.50;;;5.32;;
66139;SDS011;52945;51.908;8.364;2022-11-20T12:55:15;12.60;;;5.15;;
66139;SDS011;52945;51.908;8.364;2022-11-20T12:58:39;12.02;;;4.68;;
66139;SDS011;52945;51.908;8.364;2022-11-20T13:01:56;11.43;;;4.25;;
66139;SDS011;52945;51.908;8.364;2022-11-20T13:08:03;15.52;;;5.75;;
66139;SDS011;52945;51.908;8.364;2022-11-20T13:11:33;9.32;;;4.22;;
66139;SDS011;52945;51.908;8.364;2022-11-20T13:18:19;13.48;;;5.38;;
66139;SDS011;52945;51.908;8.364;2022-11-20T13:21:21;9.13;;;4.43;;
66139;SDS011;52945;51.908;8.364;2022-11-20T13:24:24;14.38;;;6.10;;
66139;SDS011;52945;51.908;8.364;2022-11-20T13:27:32;10.82;;;4.88;;
66139;SDS011;52945;51.908;8.364;2022-11-20T13:30:33;10.85;;;4.57;;
66139;SDS011;52945;51.908;8.364;2022-11-20T13:33:35;11.00;;;4.70;;
66139;SDS011;52945;51.908;8.364;2022-11-20T13:36:47;9.00;;;4.70;;
66139;SDS011;52945;51.908;8.364;2022-11-20T13:39:52;9.55;;;5.05;;
66139;SDS011;52945;51.908;8.364;2022-11-20T13:46:03;8.45;;;4.22;;
66139;SDS011;52945;51.908;8.364;2022-11-20T13:49:07;13.10;;;4.68;;
66139;SDS011;52945;51.908;8.364;2022-11-20T14:02:02;13.00;;;5.63;;
66139;SDS011;52945;51.908;8.364;2022-11-20T14:05:03;14.05;;;5.38;;
66139;SDS011;52945;51.908;8.364;2022-11-20T14:14:13;12.63;;;5.32;;
66139;SDS011;52945;51.908;8.364;2022-11-20T14:20:27;14.27;;;5.38;;
66139;SDS011;52945;51.908;8.364;2022-11-20T14:26:31;13.18;;;6.18;;
66139;SDS011;52945;51.908;8.364;2022-11-20T14:29:34;14.38;;;6.38;;
66139;SDS011;52945;51.908;8.364;2022-11-20T14:32:37;13.98;;;5.97;;
66139;SDS011;52945;51.908;8.364;2022-11-20T14:35:44;14.32;;;5.95;;
66139;SDS011;52945;51.908;8.364;2022-11-20T14:38:49;15.38;;;6.40;;
66139;SDS011;52945;51.908;8.364;2022-11-20T14:41:52;13.32;;;5.55;;
66139;SDS011;52945;51.908;8.364;2022-11-20T14:44:59;13.82;;;5.85;;
66139;SDS011;52945;51.908;8.364;2022-11-20T14:48:01;14.30;;;6.28;;
66139;SDS011;52945;51.908;8.364;2022-11-20T14:51:02;13.73;;;5.80;;
66139;SDS011;52945;51.908;8.364;2022-11-20T15:00:30;16.10;;;6.35;;
66139;SDS011;52945;51.908;8.364;2022-11-20T15:03:32;14.00;;;6.40;;
66139;SDS011;52945;51.908;8.364;2022-11-20T15:06:37;13.40;;;5.38;;
66139;SDS011;52945;51.908;8.364;2022-11-20T15:16:39;9.18;;;4.90;;
66139;SDS011;52945;51.908;8.364;2022-11-20T15:19:33;14.77;;;5.95;;
66139;SDS011;52945;51.908;8.364;2022-11-20T15:22:34;12.15;;;5.05;;
66139;SDS011;52945;51.908;8.364;2022-11-20T15:25:34;9.95;;;5.07;;
66139;SDS011;52945;51.908;8.364;2022-11-20T15:28:41;15.02;;;5.65;;
66139;SDS011;52945;51.908;8.364;2022-11-20T15:31:43;13.35;;;5.63;;
66139;SDS011;52945;51.908;8.364;2022-11-20T15:37:45;9.95;;;5.05;;
66139;SDS011;52945;51.908;8.364;2022-11-20T15:40:45;14.68;;;5.68;;
66139;SDS011;52945;51.908;8.364;2022-11-20T15:43:46;13.63;;;6.05;;
66139;SDS011;52945;51.908;8.364;2022-11-20T15:46:47;13.18;;;5.72;;
66139;SDS011;52945;51.908;8.364;2022-11-20T15:49:47;18.40;;;7.05;;
66139;SDS011;52945;51.908;8.364;2022-11-20T15:52:48;16.35;;;6.07;;
66139;SDS011;52945;51.908;8.364;2022-11-20T15:55:49;12.90;;;5.53;;
66139;SDS011;52945;51.908;8.364;2022-11-20T15:58:49;13.73;;;6.10;;
66139;SDS011;52945;51.908;8.364;2022-11-20T16:01:50;16.50;;;6.10;;
66139;SDS011;52945;51.908;8.364;2022-11-20T16:04:50;15.60;;;5.50;;
66139;SDS011;52945;51.908;8.364;2022-11-20T16:07:51;15.35;;;6.63;;
66139;SDS011;52945;51.908;8.364;2022-11-20T16:10:52;10.02;;;4.68;;
66139;SDS011;52945;51.908;8.364;2022-11-20T16:13:52;14.10;;;5.40;;
66139;SDS011;52945;51.908;8.364;2022-11-20T16:17:12;9.90;;;4.93;;
66139;SDS011;52945;51.908;8.364;2022-11-20T16:20:13;12.23;;;4.90;;
66139;SDS011;52945;51.908;8.364;2022-11-20T16:23:14;10.88;;;4.75;;
66139;SDS011;52945;51.908;8.364;2022-11-20T16:26:16;11.20;;;5.05;;
66139;SDS011;52945;51.908;8.364;2022-11-20T16:29:17;11.90;;;5.53;;
66139;SDS011;52945;51.908;8.364;2022-11-20T16:32:17;14.70;;;5.38;;
66139;SDS011;52945;51.908;8.364;2022-11-20T16:35:18;14.38;;;5.97;;
66139;SDS011;52945;51.908;8.364;2022-11-20T16:38:18;15.70;;;5.35;;
66139;SDS011;52945;51.908;8.364;2022-11-20T16:41:19;13.48;;;4.85;;
66139;SDS011;52945;51.908;8.364;2022-11-20T16:44:20;13.75;;;5.88;;
66139;SDS011;52945;51.908;8.364;2022-11-20T16:47:21;14.52;;;4.75;;
66139;SDS011;52945;51.908;8.364;2022-11-20T16:50:21;13.30;;;5.03;;
66139;SDS011;52945;51.908;8.364;2022-11-20T16:53:22;12.48;;;5.15;;
66139;SDS011;52945;51.908;8.364;2022-11-20T16:56:23;16.00;;;4.60;;
66139;SDS011;52945;51.908;8.364;2022-11-20T16:59:25;14.63;;;5.65;;
66139;SDS011;52945;51.908;8.364;2022-11-20T17:02:26;13.68;;;5.60;;
66139;SDS011;52945;51.908;8.364;2022-11-20T17:05:28;12.15;;;5.63;;
66139;SDS011;52945;51.908;8.364;2022-11-20T17:08:29;17.83;;;6.13;;
66139;SDS011;52945;51.908;8.364;2022-11-20T17:11:30;16.40;;;6.45;;
66139;SDS011;52945;51.908;8.364;2022-11-20T17:14:32;10.93;;;4.70;;
66139;SDS011;52945;51.908;8.364;2022-11-20T17:17:33;17.52;;;6.60;;
66139;SDS011;52945;51.908;8.364;2022-11-20T17:20:33;17.83;;;6.25;;
66139;SDS011;52945;51.908;8.364;2022-11-20T17:23:35;17.13;;;6.00;;
66139;SDS011;52945;51.908;8.364;2022-11-20T17:26:38;26.88;;;8.25;;
66139;SDS011;52945;51.908;8.364;2022-11-20T17:29:40;15.23;;;6.72;;
66139;SDS011;52945;51.908;8.364;2022-11-20T17:32:40;13.07;;;4.85;;
66139;SDS011;52945;51.908;8.364;2022-11-20T17:35:45;10.70;;;4.60;;
66139;SDS011;52945;51.908;8.364;2022-11-20T17:38:46;13.82;;;5.97;;
66139;SDS011;52945;51.908;8.364;2022-11-20T17:41:47;15.13;;;4.93;;
66139;SDS011;52945;51.908;8.364;2022-11-20T17:48:08;10.48;;;4.68;;
66139;SDS011;52945;51.908;8.364;2022-11-20T17:51:10;11.93;;;4.90;;
66139;SDS011;52945;51.908;8.364;2022-11-20T17:54:12;11.68;;;5.10;;
66139;SDS011;52945;51.908;8.364;2022-11-20T17:57:12;10.93;;;5.28;;
66139;SDS011;52945;51.908;8.364;2022-11-20T18:00:31;11.25;;;5.25;;
66139;SDS011;52945;51.908;8.364;2022-11-20T18:03:32;10.95;;;5.45;;
66139;SDS011;52945;51.908;8.364;2022-11-20T18:06:33;9.05;;;3.80;;
66139;SDS011;52945;51.908;8.364;2022-11-20T18:09:33;9.63;;;4.40;;
66139;SDS011;52945;51.908;8.364;2022-11-20T18:12:34;12.73;;;5.15;;
66139;SDS011;52945;51.908;8.364;2022-11-20T18:15:34;13.63;;;6.13;;
66139;SDS011;52945;51.908;8.364;2022-11-20T18:18:35;11.02;;;5.00;;
66139;SDS011;52945;51.908;8.364;2022-11-20T18:21:36;10.82;;;3.97;;
66139;SDS011;52945;51.908;8.364;2022-11-20T18:24:36;12.05;;;4.72;;
66139;SDS011;52945;51.908;8.364;2022-11-20T18:27:38;14.13;;;5.28;;
66139;SDS011;52945;51.908;8.364;2022-11-20T18:30:39;10.02;;;5.03;;
66139;SDS011;52945;51.908;8.364;2022-11-20T18:33:39;10.90;;;3.83;;
66139;SDS011;52945;51.908;8.364;2022-11-20T18:36:40;9.82;;;4.88;;
66139;SDS011;52945;51.908;8.364;2022-11-20T18:39:41;11.63;;;5.13;;
66139;SDS011;52945;51.908;8.364;2022-11-20T18:42:42;13.73;;;4.80;;
66139;SDS011;52945;51.908;8.364;2022-11-20T18:46:02;12.85;;;4.68;;
66139;SDS011;52945;51.908;8.364;2022-11-20T18:49:03;10.98;;;4.78;;
66139;SDS011;52945;51.908;8.364;2022-11-20T18:52:04;11.98;;;4.80;;
66139;SDS011;52945;51.908;8.364;2022-11-20T18:55:05;11.25;;;4.25;;
66139;SDS011;52945;51.908;8.364;2022-11-20T18:58:06;9.13;;;4.20;;
66139;SDS011;52945;51.908;8.364;2022-11-20T19:01:07;14.77;;;5.57;;
66139;SDS011;52945;51.908;8.364;2022-11-20T19:04:10;9.45;;;4.43;;
66139;SDS011;52945;51.908;8.364;2022-11-20T19:07:12;9.80;;;4.43;;
66139;SDS011;52945;51.908;8.364;2022-11-20T19:10:16;9.68;;;4.68;;
66139;SDS011;52945;51.908;8.364;2022-11-20T19:13:19;10.23;;;5.05;;
66139;SDS011;52945;51.908;8.364;2022-11-20T19:16:19;16.63;;;5.75;;
66139;SDS011;52945;51.908;8.364;2022-11-20T19:19:23;11.80;;;5.43;;
66139;SDS011;52945;51.908;8.364;2022-11-20T19:22:23;9.93;;;4.55;;
66139;SDS011;52945;51.908;8.364;2022-11-20T19:25:24;9.35;;;4.30;;
66139;SDS011;52945;51.908;8.364;2022-11-20T19:28:24;8.55;;;4.40;;
66139;SDS011;52945;51.908;8.364;2022-11-20T19:31:25;13.10;;;5.00;;
66139;SDS011;52945;51.908;8.364;2022-11-20T19:34:26;11.25;;;4.93;;
66139;SDS011;52945;51.908;8.364;2022-11-20T19:37:26;8.55;;;4.18;;
66139;SDS011;52945;51.908;8.364;2022-11-20T19:40:27;9.88;;;5.32;;
66139;SDS011;52945;51.908;8.364;2022-11-20T19:43:28;11.95;;;4.82;;
66139;SDS011;52945;51.908;8.364;2022-11-20T19:46:29;14.80;;;5.18;;
66139;SDS011;52945;51.908;8.364;2022-11-20T19:49:31;10.30;;;4.40;;
66139;SDS011;52945;51.908;8.364;2022-11-20T19:52:32;10.73;;;4.35;;
66139;SDS011;52945;51.908;8.364;2022-11-20T19:55:33;9.30;;;4.28;;
66139;SDS011;52945;51.908;8.364;2022-11-20T19:58:34;12.57;;;5.32;;
66139;SDS011;52945;51.908;8.364;2022-11-20T20:01:35;9.80;;;5.03;;
66139;SDS011;52945;51.908;8.364;2022-11-20T20:04:35;11.82;;;4.78;;